createdAt,value
2023-04-30T02:55:07.059Z,3.0
2023-04-30T02:56:01.075Z,3.5
2023-04-30T02:57:01.029Z,3.7
2023-04-30T02:58:01.022Z,4.3
2023-04-30T02:59:01.020Z,4.6
2023-04-30T03:00:04.278Z,4.8
2023-04-30T03:01:01.069Z,5.4
2023-04-30T03:02:01.019Z,5.9
2023-04-30T03:03:01.077Z,6.6
2023-04-30T03:04:01.024Z,7.1
2023-04-30T03:05:02.201Z,7.5
2023-04-30T03:06:01.087Z,8.4
2023-04-30T03:07:01.026Z,9.2
2023-04-30T03:08:01.023Z,10.4
2023-04-30T03:09:01.023Z,11.4
2023-04-30T03:10:01.243Z,12.9
2023-04-30T03:11:01.117Z,15.1
2023-04-30T03:12:01.028Z,17.3
2023-04-30T03:13:01.024Z,20.5
2023-04-30T03:14:01.020Z,23.6
2023-04-30T03:15:02.953Z,26.7
2023-04-30T03:16:01.351Z,31.2
2023-04-30T03:17:01.035Z,35.7
2023-04-30T03:18:01.065Z,42.1
2023-04-30T03:19:01.021Z,48.6
2023-04-30T03:20:04.382Z,55.1
2023-04-30T03:21:01.033Z,64.3
2023-04-30T03:22:01.058Z,73.5
2023-04-30T03:23:01.022Z,86.4
2023-04-30T03:24:01.036Z,99.3
2023-04-30T03:25:01.717Z,112.3
2023-04-30T03:26:01.022Z,130.2
2023-04-30T03:27:01.092Z,148.1
2023-04-30T03:28:01.031Z,173.0
2023-04-30T03:29:01.032Z,197.9
2023-04-30T03:30:01.925Z,222.7
2023-04-30T03:31:01.069Z,255.5
2023-04-30T03:32:01.178Z,288.3
2023-04-30T03:33:01.042Z,331.5
2023-04-30T03:34:01.060Z,374.7
2023-04-30T03:35:16.058Z,417.9
2023-04-30T03:36:01.231Z,474.2
2023-04-30T03:37:02.103Z,530.5
2023-04-30T03:38:01.033Z,601.1
2023-04-30T03:55:01.554Z,4473.0
2023-04-30T03:56:00.601Z,4781.0
2023-04-30T03:57:00.585Z,4883.7
2023-04-30T03:58:00.582Z,5150.8
2023-04-30T03:59:00.581Z,5311.0
2023-04-30T04:00:01.952Z,5417.8
2023-04-30T04:01:00.580Z,5632.6
2023-04-30T04:02:00.603Z,5793.6
2023-04-30T04:03:00.604Z,6076.2
2023-04-30T04:04:00.606Z,6302.3
2023-04-30T04:05:00.815Z,6487.3
2023-04-30T04:06:00.605Z,6769.1
2023-04-30T04:07:00.594Z,7007.5
2023-04-30T04:08:00.591Z,7258.6
2023-04-30T04:09:00.600Z,7476.1
2023-04-30T04:10:00.807Z,7879.4
2023-04-30T04:11:00.657Z,8236.7
2023-04-30T04:12:00.597Z,8594.1
2023-04-30T04:13:00.587Z,8975.0
2023-04-30T04:14:00.588Z,9355.9
2023-04-30T04:15:01.554Z,9736.9
2023-04-30T04:16:00.714Z,10110.0
2023-04-30T04:17:00.587Z,10483.1
2023-04-30T04:18:00.599Z,10865.3
2023-04-30T04:19:00.591Z,11247.4
2023-04-30T04:20:00.808Z,11629.5
2023-04-30T04:21:00.910Z,11969.5
2023-04-30T04:22:00.596Z,12309.4
2023-04-30T04:23:00.603Z,12641.8
2023-04-30T04:24:00.596Z,12974.2
2023-04-30T04:25:01.842Z,13306.6
2023-04-30T04:26:00.643Z,13663.7
2023-04-30T04:27:00.614Z,14020.9
2023-04-30T04:28:00.603Z,14349.1
2023-04-30T04:29:00.594Z,14677.4
2023-04-30T04:30:01.302Z,15005.7
2023-04-30T04:31:00.631Z,15332.1
2023-04-30T04:32:00.665Z,15658.6
2023-04-30T04:33:00.707Z,15952.9
2023-04-30T04:34:00.690Z,16247.3
2023-04-30T04:35:00.812Z,16541.6
2023-04-30T04:36:00.647Z,16846.3
2023-04-30T04:37:00.589Z,17151.1
2023-04-30T04:38:00.618Z,17445.9
2023-04-30T04:39:00.597Z,17740.7
2023-04-30T04:40:01.668Z,18035.5
2023-04-30T04:41:00.620Z,18355.0
2023-04-30T04:42:00.587Z,18674.5
2023-04-30T04:43:00.622Z,18995.2
2023-04-30T04:44:00.591Z,19315.9
2023-04-30T04:45:01.326Z,19636.5
2023-04-30T04:46:00.624Z,19950.5
2023-04-30T04:47:00.588Z,20264.4
2023-04-30T04:48:00.614Z,20549.3
2023-04-30T04:49:00.593Z,20834.1
2023-04-30T04:50:00.801Z,21119.0
2023-04-30T04:51:00.623Z,21378.7
2023-04-30T04:52:00.596Z,21638.3
2023-04-30T04:53:00.596Z,21923.9
2023-04-30T04:54:00.611Z,22209.5
2023-04-30T04:55:31.332Z,22495.1
2023-04-30T04:56:00.839Z,22843.7
2023-04-30T04:57:00.595Z,23192.2
2023-04-30T04:58:00.595Z,23605.8
2023-04-30T05:15:01.310Z,50575.0
2023-04-30T05:16:00.312Z,50764.5
2023-04-30T05:17:00.270Z,50827.7
2023-04-30T05:18:00.369Z,50901.0
2023-04-30T05:19:00.271Z,50945.0
2023-04-30T05:20:00.494Z,50974.3
2023-04-30T05:21:00.747Z,51159.4
2023-04-30T05:22:00.265Z,51298.3
2023-04-30T05:23:00.276Z,51512.7
2023-04-30T05:24:00.275Z,51684.2
2023-04-30T05:25:22.594Z,51881.2
2023-04-30T05:26:00.310Z,52045.3
2023-04-30T05:27:00.280Z,52184.2
2023-04-30T05:28:00.268Z,52351.4
2023-04-30T05:29:00.284Z,52496.2
2023-04-30T05:30:01.057Z,52759.5
2023-04-30T05:31:00.333Z,53061.0
2023-04-30T05:32:00.345Z,53362.5
2023-04-30T05:33:00.297Z,53687.1
2023-04-30T05:34:00.272Z,54011.7
2023-04-30T05:35:01.223Z,54336.3
2023-04-30T05:36:00.318Z,54639.3
2023-04-30T05:37:00.272Z,54942.3
2023-04-30T05:38:00.282Z,55210.9
2023-04-30T05:39:00.273Z,55479.5
2023-04-30T05:40:15.934Z,55706.6
2023-04-30T05:41:00.313Z,55984.0
2023-04-30T05:42:00.274Z,56261.4
2023-04-30T05:43:00.283Z,56558.3
2023-04-30T06:05:02.022Z,65535.0
2023-04-30T06:15:01.689Z,65535.0
2023-04-30T06:30:02.482Z,65535.0
2023-04-30T07:05:01.656Z,65535.0
2023-04-30T07:15:02.186Z,65535.0
2023-04-30T07:30:01.451Z,65535.0
2023-04-30T07:45:02.328Z,65535.0
2023-04-30T08:15:02.109Z,65535.0
2023-04-30T08:30:02.780Z,65535.0
2023-04-30T08:45:01.990Z,65535.0
2023-04-30T09:00:03.571Z,65535.0
2023-04-30T09:15:02.348Z,65535.0
2023-04-30T09:30:02.710Z,65535.0
2023-04-30T09:45:02.311Z,65535.0
2023-04-30T10:00:04.704Z,65535.0
2023-04-30T10:15:02.711Z,65535.0
2023-04-30T10:45:01.325Z,65535.0
2023-04-30T11:00:01.097Z,65535.0
2023-04-30T11:30:01.615Z,65535.0
2023-04-30T11:45:02.162Z,65535.0
2023-04-30T12:00:04.449Z,65535.0
2023-04-30T13:00:03.536Z,65535.0
2023-04-30T13:15:01.681Z,65535.0
2023-04-30T13:30:01.669Z,65535.0
2023-04-30T13:45:45.918Z,65535.0
2023-04-30T14:45:44.510Z,65535.0
2023-04-30T16:16:02.664Z,64976.7
2023-04-30T16:17:00.759Z,64418.5
2023-04-30T16:18:00.706Z,63860.2
2023-04-30T16:37:00.238Z,40739.0
2023-04-30T16:38:00.237Z,40669.5
2023-04-30T16:39:00.233Z,40486.0
2023-04-30T16:40:00.436Z,40363.7
2023-04-30T16:41:00.230Z,40201.9
2023-04-30T16:42:00.226Z,40080.5
2023-04-30T16:43:00.239Z,39986.1
2023-04-30T16:44:00.233Z,39816.5
2023-04-30T16:47:00.227Z,39348.1
2023-04-30T16:48:00.348Z,39218.6
2023-04-30T16:49:00.229Z,39055.1
2023-04-30T16:52:00.229Z,38242.7
2023-04-30T16:53:00.238Z,37987.5
2023-04-30T16:54:00.237Z,37744.3
2023-04-30T16:55:00.543Z,37501.2
2023-04-30T16:56:00.229Z,37254.1
2023-04-30T16:57:00.235Z,37007.1
2023-04-30T16:58:00.233Z,36760.0
2023-04-30T16:59:00.229Z,36567.3
2023-04-30T17:02:00.245Z,36011.7
2023-04-30T17:03:00.390Z,35830.3
2023-04-30T17:04:00.324Z,35661.7
2023-04-30T17:05:00.986Z,35493.1
2023-04-30T17:07:01.293Z,35081.5
2023-04-30T17:08:00.238Z,34875.7
2023-04-30T17:09:00.239Z,34665.9
2023-04-30T17:12:00.236Z,34040.7
2023-04-30T17:13:00.253Z,33833.1
2023-04-30T17:14:00.239Z,33596.2
2023-04-30T17:17:00.247Z,32887.3
2023-04-30T17:18:00.329Z,32651.3
2023-04-30T17:19:00.231Z,32413.1
2023-04-30T17:20:01.092Z,32174.8
2023-04-30T17:22:00.238Z,31695.6
2023-04-30T17:23:00.274Z,31456.0
2023-04-30T17:24:00.244Z,31207.1
2023-04-30T17:27:00.236Z,30421.1
2023-04-30T17:28:00.238Z,30152.5
2023-04-30T17:29:00.241Z,29884.5
2023-04-30T17:32:00.238Z,29070.6
2023-04-30T17:33:00.392Z,28797.7
2023-04-30T17:34:00.259Z,28513.7
2023-04-30T17:37:00.246Z,27661.9
2023-04-30T17:38:00.242Z,27378.0
2023-04-30T17:39:00.264Z,27064.1
2023-04-30T17:40:01.136Z,26750.1
2023-04-30T17:42:00.246Z,26145.6
2023-04-30T17:43:00.246Z,25843.3
2023-04-30T17:44:00.248Z,25537.7
2023-04-30T17:45:01.272Z,25232.0
2023-04-30T17:47:00.257Z,24588.9
2023-04-30T17:48:00.303Z,24267.4
2023-04-30T17:49:00.250Z,23924.3
2023-04-30T17:52:00.251Z,22882.2
2023-04-30T17:53:00.247Z,22532.7
2023-04-30T17:54:00.278Z,22212.8
2023-04-30T17:55:01.074Z,21892.9
2023-04-30T17:56:00.249Z,21570.1
2023-04-30T17:57:00.253Z,21247.3
2023-04-30T17:58:00.252Z,20924.5
2023-04-30T17:59:00.263Z,20595.5
2023-04-30T18:02:00.294Z,19635.8
2023-04-30T18:03:00.332Z,19320.4
2023-04-30T18:04:00.333Z,19030.1
2023-04-30T18:05:01.918Z,18739.7
2023-04-30T18:07:00.249Z,18167.5
2023-04-30T18:08:00.252Z,17881.3
2023-04-30T18:09:00.257Z,17581.9
2023-04-30T18:10:01.251Z,17282.4
2023-04-30T18:12:00.382Z,16635.5
2023-04-30T18:13:00.253Z,16312.0
2023-04-30T18:14:00.257Z,15965.5
2023-04-30T18:17:00.257Z,14876.3
2023-04-30T18:18:00.279Z,14504.9
2023-04-30T18:19:00.257Z,14119.9
2023-04-30T18:22:00.268Z,12943.5
2023-04-30T18:23:00.265Z,12547.8
2023-04-30T18:24:01.293Z,12155.2
2023-04-30T18:27:00.288Z,11005.8
2023-04-30T18:28:00.263Z,10627.4
2023-04-30T18:29:00.266Z,10263.3
2023-04-30T18:30:01.180Z,9899.1
2023-04-30T18:32:00.312Z,9208.6
2023-04-30T18:33:00.267Z,8863.3
2023-04-30T18:34:00.264Z,8531.1
2023-04-30T18:35:01.052Z,8198.9
2023-04-30T18:36:00.760Z,7881.3
2023-04-30T18:37:00.263Z,7563.7
2023-04-30T18:38:00.267Z,7246.1
2023-04-30T18:39:00.265Z,6945.1
2023-04-30T18:42:00.263Z,6075.1
2023-04-30T18:43:00.288Z,5790.5
2023-04-30T18:44:00.260Z,5524.0
2023-04-30T18:46:00.290Z,5008.3
2023-04-30T18:47:00.263Z,4759.2
2023-04-30T18:48:00.293Z,4510.1
2023-04-30T18:49:00.269Z,4278.1
2023-04-30T18:52:00.273Z,3615.8
2023-04-30T18:53:00.281Z,3400.6
2023-04-30T18:54:00.265Z,3203.9
2023-04-30T18:55:01.363Z,3007.1
2023-04-30T18:57:00.279Z,2652.3
2023-04-30T18:58:00.285Z,2474.9
2023-04-30T18:59:00.302Z,2315.1
2023-04-30T19:02:00.365Z,1868.9
2023-04-30T19:03:00.385Z,1725.8
2023-04-30T19:04:00.365Z,1599.7
2023-04-30T19:05:01.206Z,1473.7
2023-04-30T19:07:00.284Z,1255.1
2023-04-30T19:08:00.277Z,1145.9
2023-04-30T19:09:00.278Z,1050.7
2023-04-30T19:12:00.277Z,792.5
2023-04-30T19:13:00.310Z,711.0
2023-04-30T19:14:00.282Z,643.1
2023-04-30T19:17:00.327Z,465.1
2023-04-30T19:18:00.402Z,410.1
2023-04-30T19:19:00.290Z,366.3
2023-04-30T19:20:01.141Z,322.6
2023-04-30T19:22:00.280Z,254.7
2023-04-30T19:23:00.297Z,220.8
2023-04-30T19:24:00.283Z,195.2
2023-04-30T19:25:01.952Z,169.6
2023-04-30T19:27:00.290Z,131.7
2023-04-30T19:28:00.295Z,112.8
2023-04-30T19:29:00.289Z,99.1
2023-04-30T19:32:00.342Z,66.0
2023-04-30T19:33:00.304Z,56.3
2023-04-30T19:34:00.287Z,49.3
2023-04-30T19:36:00.298Z,37.5
2023-04-30T19:37:00.292Z,32.7
2023-04-30T19:38:00.351Z,27.8
2023-04-30T19:39:00.289Z,24.3
2023-04-30T19:40:01.211Z,20.9
2023-04-30T19:42:00.295Z,16.1
2023-04-30T19:43:00.289Z,13.7
2023-04-30T19:44:00.294Z,12.0
2023-04-30T19:47:00.317Z,8.1
2023-04-30T19:48:00.339Z,6.9
2023-04-30T19:49:00.291Z,6.1
2023-04-30T19:50:01.067Z,5.3
2023-04-30T19:52:00.288Z,4.1
2023-04-30T19:53:00.287Z,3.5
2023-04-30T19:54:00.289Z,3.1
2023-04-30T19:57:00.287Z,2.2
2023-04-30T19:58:00.287Z,1.9
2023-04-30T19:59:00.314Z,1.7
2023-04-30T20:02:00.384Z,1.3
2023-04-30T20:03:00.360Z,1.1
2023-04-30T20:13:00.360Z,0.8
2023-04-30T20:14:00.292Z,0.7
2023-04-30T20:17:00.318Z,0.5
2023-04-30T20:19:00.328Z,0.4
2023-04-30T20:22:00.298Z,0.2
2023-04-30T20:23:00.308Z,0.1
